Althea — 9HAQ7 — position and weather

sailwx.info

Track history (hours):
 
Tides and Currents Weather Stations Pressure Air Temp Water Temp Dewpoint Dewpoint Depression Visibility Wind Speed Wind Dir Waves Ship Positions

Althea

Last reported at 2014-Oct-17 21:33 UTC. Time now 2014-Oct-23 03:15 UTC.
Position N 33°36' E 028°28'.

Length 170 m; draft 10 m.

Type: Cargo ship. MMSI: 215047000.

Date/timePositionNaut miles runAvg speedWind from/ knotsBaromVisibWave heightAir tempDewpointWater temp
2014-Oct-17 21:33N 33°36' E 028°28'9213.2
2014-Oct-17 14:33N 35°02' E 027°46'1413.4
2014-Oct-17 13:30N 35°14' E 027°39'1313.3
2014-Oct-17 12:30N 35°27' E 027°33'1313.6
2014-Oct-17 11:33N 35°39' E 027°27'1413.9
2014-Oct-17 10:33N 35°52' E 027°20'1413.7
2014-Oct-17 09:33N 36°04' E 027°12'1414.0
2014-Oct-17 08:31N 36°14' E 027°01'1313.9
2014-Oct-17 07:33N 36°27' E 026°55'1414.0
2014-Oct-17 06:33N 36°40' E 026°49'1414.2
2014-Oct-17 05:33N 36°54' E 026°43'1513.1
2014-Oct-17 04:23N 37°07' E 026°34'1213.8
2014-Oct-17 03:33N 37°14' E 026°22'1313.3
2014-Oct-17 02:33N 37°22' E 026°09'1313.3
2014-Oct-17 01:34N 37°29' E 025°55'1212.3
2014-Oct-17 00:33N 37°41' E 025°58'1413.1
2014-Oct-16 23:27N 37°54' E 026°04'246 8.8
2014-Oct-15 19:29N 41°16' E 029°08'256 8.6
2014-Oct-14 13:33N 45°22' E 030°45'2812.9
2014-Oct-14 11:24N 45°49' E 030°56'1212.8
2014-Oct-14 10:30N 45°60' E 031°01'1011.0
2014-Oct-14 09:33N 46°10' E 031°00'1312.5
2014-Oct-14 08:28N 46°22' E 030°51'7 2.9
2014-Oct-14 06:04N 46°29' E 030°51'0 0.0
2014-Oct-14 05:28N 46°29' E 030°51'0 0.0
2014-Oct-14 04:22N 46°29' E 030°51'0 0.0
2014-Oct-14 03:25N 46°29' E 030°51'0 0.0
2014-Oct-14 02:19N 46°29' E 030°51'0 0.0
2014-Oct-14 01:28N 46°29' E 030°51'4 0.1
2014-Oct-12 06:14N 46°30' E 030°46'4 5.0
2014-Oct-12 05:23N 46°30' E 030°53'1 0.1
2014-Oct-11 19:12N 46°30' E 030°53'0 0.0
2014-Oct-11 17:09N 46°30' E 030°53'0 0.0
2014-Oct-11 16:18N 46°30' E 030°53'0 0.0
2014-Oct-11 15:30N 46°30' E 030°53'0 0.0
2014-Oct-11 12:24N 46°30' E 030°53'0 0.0
2014-Oct-11 11:03N 46°30' E 030°53'0 0.0
2014-Oct-11 10:18N 46°30' E 030°53'0 0.0
2014-Oct-11 09:27N 46°30' E 030°53'0 0.0
2014-Oct-11 07:18N 46°30' E 030°53'0 0.0
2014-Oct-11 06:30N 46°30' E 030°53'0 0.0
2014-Oct-11 05:30N 46°30' E 030°53'0 0.0
2014-Oct-11 03:33N 46°30' E 030°53'0 0.0
2014-Oct-11 01:30N 46°30' E 030°53'0 0.0
2014-Oct-11 00:33N 46°30' E 030°53'0 0.0
2014-Oct-10 23:30N 46°30' E 030°53'0 0.0
2014-Oct-10 09:30N 46°30' E 030°53'7 1.2
2014-Oct-10 04:12N 46°30' E 030°44'3 0.2
2014-Oct-09 06:12N 46°30' E 030°49'  
Track history (hours):
 
Tides and Currents Weather Stations Pressure Air Temp Water Temp Dewpoint Dewpoint Depression Visibility Wind Speed Wind Dir Waves Ship Positions

Althea

Last reported at 2014-Oct-17 21:33 UTC. Time now 2014-Oct-23 03:15 UTC.
Position N 33°36' E 028°28'.

Length 170 m; draft 10 m.

Type: Cargo ship. MMSI: 215047000.

Date/timePositionNaut miles runAvg speedWind from/ knotsBaromVisibWave heightAir tempDewpointWater temp
2014-Oct-17 21:33N 33°36' E 028°28'9213.2
2014-Oct-17 14:33N 35°02' E 027°46'1413.4
2014-Oct-17 13:30N 35°14' E 027°39'1313.3
2014-Oct-17 12:30N 35°27' E 027°33'1313.6
2014-Oct-17 11:33N 35°39' E 027°27'1413.9
2014-Oct-17 10:33N 35°52' E 027°20'1413.7
2014-Oct-17 09:33N 36°04' E 027°12'1414.0
2014-Oct-17 08:31N 36°14' E 027°01'1313.9
2014-Oct-17 07:33N 36°27' E 026°55'1414.0
2014-Oct-17 06:33N 36°40' E 026°49'1414.2
2014-Oct-17 05:33N 36°54' E 026°43'1513.1
2014-Oct-17 04:23N 37°07' E 026°34'1213.8
2014-Oct-17 03:33N 37°14' E 026°22'1313.3
2014-Oct-17 02:33N 37°22' E 026°09'1313.3
2014-Oct-17 01:34N 37°29' E 025°55'1212.3
2014-Oct-17 00:33N 37°41' E 025°58'1413.1
2014-Oct-16 23:27N 37°54' E 026°04'246 8.8
2014-Oct-15 19:29N 41°16' E 029°08'256 8.6
2014-Oct-14 13:33N 45°22' E 030°45'2812.9
2014-Oct-14 11:24N 45°49' E 030°56'1212.8
2014-Oct-14 10:30N 45°60' E 031°01'1011.0
2014-Oct-14 09:33N 46°10' E 031°00'1312.5
2014-Oct-14 08:28N 46°22' E 030°51'7 2.9
2014-Oct-14 06:04N 46°29' E 030°51'0 0.0
2014-Oct-14 05:28N 46°29' E 030°51'0 0.0
2014-Oct-14 04:22N 46°29' E 030°51'0 0.0
2014-Oct-14 03:25N 46°29' E 030°51'0 0.0
2014-Oct-14 02:19N 46°29' E 030°51'0 0.0
2014-Oct-14 01:28N 46°29' E 030°51'4 0.1
2014-Oct-12 06:14N 46°30' E 030°46'4 5.0
2014-Oct-12 05:23N 46°30' E 030°53'1 0.1
2014-Oct-11 19:12N 46°30' E 030°53'0 0.0
2014-Oct-11 17:09N 46°30' E 030°53'0 0.0
2014-Oct-11 16:18N 46°30' E 030°53'0 0.0
2014-Oct-11 15:30N 46°30' E 030°53'0 0.0
2014-Oct-11 12:24N 46°30' E 030°53'0 0.0
2014-Oct-11 11:03N 46°30' E 030°53'0 0.0
2014-Oct-11 10:18N 46°30' E 030°53'0 0.0
2014-Oct-11 09:27N 46°30' E 030°53'0 0.0
2014-Oct-11 07:18N 46°30' E 030°53'0 0.0
2014-Oct-11 06:30N 46°30' E 030°53'0 0.0
2014-Oct-11 05:30N 46°30' E 030°53'0 0.0
2014-Oct-11 03:33N 46°30' E 030°53'0 0.0
2014-Oct-11 01:30N 46°30' E 030°53'0 0.0
2014-Oct-11 00:33N 46°30' E 030°53'0 0.0
2014-Oct-10 23:30N 46°30' E 030°53'0 0.0
2014-Oct-10 09:30N 46°30' E 030°53'7 1.2
2014-Oct-10 04:12N 46°30' E 030°44'3 0.2
2014-Oct-09 06:12N 46°30' E 030°49'  

Dump ship's entire track history